KSGF/SGF METAR and TAF weather

Enter ICAO airport designator
Station Type Date Time Source
KSGF METAR 2022/06/30 13:52 UTC NOAA

KSGF 301352Z AUTO 18008KT 10SM CLR 23/12 A3014 RMK AO2 SLP195 T02330122


Station Type Date Time Source
KSGF Decoded METAR 2022/06/30 13:52 UTC NOAA

SPRINGFIELD-BRANSON NATIONAL, MO, United States (KSGF) 37-14N 93-23W 389M
Jun 30, 2022 - 09:52 AM EDT / 2022.06.30 1352 UTC
Wind: from the S (180 degrees) at 9 MPH (8 KT):0
Visibility: 10 mile(s):0
Sky conditions: clear
Temperature: 73.9 F (23.3 C)
Dew Point: 54.0 F (12.2 C)
Relative Humidity: 49%
Pressure (altimeter): 30.14 in. Hg (1020 hPa)
ob: KSGF 301352Z AUTO 18008KT 10SM CLR 23/12 A3014 RMK AO2 SLP195 T02330122
cycle: 14

Station Type Date Time Source
KSGF TAF 2022/06/30 12:22 UTC NOAA

TAF KSGF 301120Z 3012/0112 15007KT P6SM SKC
FM301500 19010KT P6SM SKC
FM010300 16007KT P6SM SKC

Example: see airport list